sensor_id;sensor_type;location;lat;lon;timestamp;P1;durP1;ratioP1;P2;durP2;ratioP2
24715;SDS011;12822;50.124;8.678;2023-05-07T00:00:23;4.78;;;1.73;;
24715;SDS011;12822;50.124;8.678;2023-05-07T00:02:49;3.88;;;2.13;;
24715;SDS011;12822;50.124;8.678;2023-05-07T00:05:15;3.55;;;2.08;;
24715;SDS011;12822;50.124;8.678;2023-05-07T00:07:42;3.55;;;2.15;;
24715;SDS011;12822;50.124;8.678;2023-05-07T00:10:09;3.42;;;1.75;;
24715;SDS011;12822;50.124;8.678;2023-05-07T00:12:37;3.20;;;2.05;;
24715;SDS011;12822;50.124;8.678;2023-05-07T00:15:03;2.53;;;1.67;;
24715;SDS011;12822;50.124;8.678;2023-05-07T00:17:29;3.85;;;2.15;;
24715;SDS011;12822;50.124;8.678;2023-05-07T00:19:55;8.60;;;2.35;;
24715;SDS011;12822;50.124;8.678;2023-05-07T00:22:21;4.90;;;2.08;;
24715;SDS011;12822;50.124;8.678;2023-05-07T00:24:47;3.28;;;1.73;;
24715;SDS011;12822;50.124;8.678;2023-05-07T00:27:13;5.35;;;2.20;;
24715;SDS011;12822;50.124;8.678;2023-05-07T00:29:40;3.85;;;1.95;;
24715;SDS011;12822;50.124;8.678;2023-05-07T00:32:06;5.30;;;2.15;;
24715;SDS011;12822;50.124;8.678;2023-05-07T00:34:32;5.45;;;1.90;;
24715;SDS011;12822;50.124;8.678;2023-05-07T00:36:58;4.28;;;2.10;;
24715;SDS011;12822;50.124;8.678;2023-05-07T00:39:24;3.05;;;2.00;;
24715;SDS011;12822;50.124;8.678;2023-05-07T00:41:50;4.97;;;2.03;;
24715;SDS011;12822;50.124;8.678;2023-05-07T00:44:16;5.55;;;2.03;;
24715;SDS011;12822;50.124;8.678;2023-05-07T00:46:43;4.10;;;2.45;;
24715;SDS011;12822;50.124;8.678;2023-05-07T00:49:09;4.22;;;2.00;;
24715;SDS011;12822;50.124;8.678;2023-05-07T00:51:36;2.40;;;1.65;;
24715;SDS011;12822;50.124;8.678;2023-05-07T00:54:02;3.05;;;2.40;;
24715;SDS011;12822;50.124;8.678;2023-05-07T00:56:28;5.95;;;2.22;;
24715;SDS011;12822;50.124;8.678;2023-05-07T00:58:54;3.70;;;2.05;;
24715;SDS011;12822;50.124;8.678;2023-05-07T01:01:21;3.38;;;2.13;;
24715;SDS011;12822;50.124;8.678;2023-05-07T01:03:47;2.63;;;1.70;;
24715;SDS011;12822;50.124;8.678;2023-05-07T01:06:13;3.90;;;1.80;;
24715;SDS011;12822;50.124;8.678;2023-05-07T01:08:41;2.40;;;1.92;;
24715;SDS011;12822;50.124;8.678;2023-05-07T01:11:07;5.32;;;1.85;;
24715;SDS011;12822;50.124;8.678;2023-05-07T01:13:34;5.28;;;2.30;;
24715;SDS011;12822;50.124;8.678;2023-05-07T01:16:01;3.85;;;2.00;;
24715;SDS011;12822;50.124;8.678;2023-05-07T01:18:27;4.85;;;2.13;;
24715;SDS011;12822;50.124;8.678;2023-05-07T01:20:55;3.72;;;1.77;;
24715;SDS011;12822;50.124;8.678;2023-05-07T01:23:22;3.00;;;1.90;;
24715;SDS011;12822;50.124;8.678;2023-05-07T01:25:51;4.90;;;2.33;;
24715;SDS011;12822;50.124;8.678;2023-05-07T01:28:18;6.90;;;2.13;;
24715;SDS011;12822;50.124;8.678;2023-05-07T01:30:49;2.58;;;2.10;;
24715;SDS011;12822;50.124;8.678;2023-05-07T01:33:17;4.35;;;2.10;;
24715;SDS011;12822;50.124;8.678;2023-05-07T01:35:45;4.70;;;2.10;;
24715;SDS011;12822;50.124;8.678;2023-05-07T01:38:11;5.03;;;2.03;;
24715;SDS011;12822;50.124;8.678;2023-05-07T01:40:38;3.75;;;2.17;;
24715;SDS011;12822;50.124;8.678;2023-05-07T01:43:04;3.92;;;2.00;;
24715;SDS011;12822;50.124;8.678;2023-05-07T01:45:30;4.32;;;2.35;;
24715;SDS011;12822;50.124;8.678;2023-05-07T01:47:57;6.65;;;2.40;;
24715;SDS011;12822;50.124;8.678;2023-05-07T01:50:24;3.83;;;1.90;;
24715;SDS011;12822;50.124;8.678;2023-05-07T01:52:51;4.20;;;2.45;;
24715;SDS011;12822;50.124;8.678;2023-05-07T01:55:17;4.30;;;2.00;;
24715;SDS011;12822;50.124;8.678;2023-05-07T01:57:44;5.35;;;2.13;;
24715;SDS011;12822;50.124;8.678;2023-05-07T02:00:10;3.25;;;2.10;;
24715;SDS011;12822;50.124;8.678;2023-05-07T02:02:36;4.43;;;2.08;;
24715;SDS011;12822;50.124;8.678;2023-05-07T02:05:03;3.25;;;2.05;;
24715;SDS011;12822;50.124;8.678;2023-05-07T02:07:29;3.40;;;2.08;;
24715;SDS011;12822;50.124;8.678;2023-05-07T02:09:56;4.50;;;1.98;;
24715;SDS011;12822;50.124;8.678;2023-05-07T02:12:22;4.13;;;2.22;;
24715;SDS011;12822;50.124;8.678;2023-05-07T02:14:48;6.25;;;2.28;;
24715;SDS011;12822;50.124;8.678;2023-05-07T02:17:14;4.72;;;2.17;;
24715;SDS011;12822;50.124;8.678;2023-05-07T02:19:40;3.45;;;2.10;;
24715;SDS011;12822;50.124;8.678;2023-05-07T02:22:06;6.88;;;2.10;;
24715;SDS011;12822;50.124;8.678;2023-05-07T02:24:33;3.90;;;2.03;;
24715;SDS011;12822;50.124;8.678;2023-05-07T02:26:59;3.58;;;2.17;;
24715;SDS011;12822;50.124;8.678;2023-05-07T02:29:25;6.07;;;2.67;;
24715;SDS011;12822;50.124;8.678;2023-05-07T02:31:51;3.35;;;2.17;;
24715;SDS011;12822;50.124;8.678;2023-05-07T02:34:18;6.97;;;2.60;;
24715;SDS011;12822;50.124;8.678;2023-05-07T02:36:44;4.18;;;2.05;;
24715;SDS011;12822;50.124;8.678;2023-05-07T02:39:10;7.10;;;2.35;;
24715;SDS011;12822;50.124;8.678;2023-05-07T02:41:36;5.13;;;2.45;;
24715;SDS011;12822;50.124;8.678;2023-05-07T02:44:05;7.38;;;2.00;;
24715;SDS011;12822;50.124;8.678;2023-05-07T02:46:31;3.97;;;2.50;;
24715;SDS011;12822;50.124;8.678;2023-05-07T02:48:58;3.80;;;2.58;;
24715;SDS011;12822;50.124;8.678;2023-05-07T02:51:25;6.80;;;2.15;;
24715;SDS011;12822;50.124;8.678;2023-05-07T02:53:51;4.00;;;2.30;;
24715;SDS011;12822;50.124;8.678;2023-05-07T02:56:20;6.72;;;2.65;;
24715;SDS011;12822;50.124;8.678;2023-05-07T02:58:46;4.18;;;2.03;;
24715;SDS011;12822;50.124;8.678;2023-05-07T03:01:12;6.35;;;2.40;;
24715;SDS011;12822;50.124;8.678;2023-05-07T03:03:39;2.65;;;2.00;;
24715;SDS011;12822;50.124;8.678;2023-05-07T03:06:05;4.82;;;2.17;;
24715;SDS011;12822;50.124;8.678;2023-05-07T03:08:32;4.22;;;2.45;;
24715;SDS011;12822;50.124;8.678;2023-05-07T03:10:58;3.15;;;2.17;;
24715;SDS011;12822;50.124;8.678;2023-05-07T03:13:24;3.60;;;2.08;;
24715;SDS011;12822;50.124;8.678;2023-05-07T03:15:50;3.42;;;2.30;;
24715;SDS011;12822;50.124;8.678;2023-05-07T03:18:16;5.93;;;2.40;;
24715;SDS011;12822;50.124;8.678;2023-05-07T03:20:42;3.20;;;2.28;;
24715;SDS011;12822;50.124;8.678;2023-05-07T03:23:08;2.65;;;2.35;;
24715;SDS011;12822;50.124;8.678;2023-05-07T03:25:34;4.38;;;2.42;;
24715;SDS011;12822;50.124;8.678;2023-05-07T03:28:00;7.43;;;2.80;;
24715;SDS011;12822;50.124;8.678;2023-05-07T03:30:26;4.75;;;2.30;;
24715;SDS011;12822;50.124;8.678;2023-05-07T03:32:52;4.97;;;2.63;;
24715;SDS011;12822;50.124;8.678;2023-05-07T03:35:18;4.63;;;2.25;;
24715;SDS011;12822;50.124;8.678;2023-05-07T03:37:44;5.75;;;2.50;;
24715;SDS011;12822;50.124;8.678;2023-05-07T03:40:10;3.00;;;2.33;;
24715;SDS011;12822;50.124;8.678;2023-05-07T03:42:37;4.50;;;2.20;;
24715;SDS011;12822;50.124;8.678;2023-05-07T03:45:03;4.20;;;2.15;;
24715;SDS011;12822;50.124;8.678;2023-05-07T03:47:29;3.50;;;1.90;;
24715;SDS011;12822;50.124;8.678;2023-05-07T03:49:55;5.93;;;2.55;;
24715;SDS011;12822;50.124;8.678;2023-05-07T03:52:21;5.57;;;2.40;;
24715;SDS011;12822;50.124;8.678;2023-05-07T03:54:50;6.32;;;2.65;;
24715;SDS011;12822;50.124;8.678;2023-05-07T03:57:16;5.05;;;2.35;;
24715;SDS011;12822;50.124;8.678;2023-05-07T03:59:42;3.22;;;2.45;;
24715;SDS011;12822;50.124;8.678;2023-05-07T04:02:08;5.72;;;2.67;;
24715;SDS011;12822;50.124;8.678;2023-05-07T04:04:35;3.75;;;2.78;;
24715;SDS011;12822;50.124;8.678;2023-05-07T04:07:01;4.13;;;2.63;;
24715;SDS011;12822;50.124;8.678;2023-05-07T04:09:27;6.57;;;2.80;;
24715;SDS011;12822;50.124;8.678;2023-05-07T04:11:53;6.20;;;2.55;;
24715;SDS011;12822;50.124;8.678;2023-05-07T04:14:19;4.30;;;2.55;;
24715;SDS011;12822;50.124;8.678;2023-05-07T04:16:45;7.25;;;2.85;;
24715;SDS011;12822;50.124;8.678;2023-05-07T04:19:11;5.75;;;2.72;;
24715;SDS011;12822;50.124;8.678;2023-05-07T04:21:41;7.55;;;2.70;;
24715;SDS011;12822;50.124;8.678;2023-05-07T04:24:08;8.18;;;2.67;;
24715;SDS011;12822;50.124;8.678;2023-05-07T04:26:34;4.45;;;2.42;;
24715;SDS011;12822;50.124;8.678;2023-05-07T04:29:00;4.65;;;3.05;;
24715;SDS011;12822;50.124;8.678;2023-05-07T04:31:26;4.85;;;2.80;;
24715;SDS011;12822;50.124;8.678;2023-05-07T04:33:52;4.50;;;2.67;;
24715;SDS011;12822;50.124;8.678;2023-05-07T04:36:18;2.80;;;2.22;;
24715;SDS011;12822;50.124;8.678;2023-05-07T04:38:44;4.95;;;2.33;;
24715;SDS011;12822;50.124;8.678;2023-05-07T04:41:12;10.52;;;2.70;;
24715;SDS011;12822;50.124;8.678;2023-05-07T04:43:38;5.00;;;2.60;;
24715;SDS011;12822;50.124;8.678;2023-05-07T04:46:05;5.65;;;2.72;;
24715;SDS011;12822;50.124;8.678;2023-05-07T04:48:31;3.38;;;2.72;;
24715;SDS011;12822;50.124;8.678;2023-05-07T04:50:57;5.45;;;3.20;;
24715;SDS011;12822;50.124;8.678;2023-05-07T04:53:23;4.13;;;2.75;;
24715;SDS011;12822;50.124;8.678;2023-05-07T04:55:54;4.47;;;2.80;;
24715;SDS011;12822;50.124;8.678;2023-05-07T04:58:20;3.50;;;2.63;;
24715;SDS011;12822;50.124;8.678;2023-05-07T05:00:46;4.45;;;3.25;;
24715;SDS011;12822;50.124;8.678;2023-05-07T05:03:12;5.13;;;3.13;;
24715;SDS011;12822;50.124;8.678;2023-05-07T05:05:38;6.38;;;2.85;;
24715;SDS011;12822;50.124;8.678;2023-05-07T05:08:04;5.43;;;2.80;;
24715;SDS011;12822;50.124;8.678;2023-05-07T05:10:30;7.40;;;3.00;;
24715;SDS011;12822;50.124;8.678;2023-05-07T05:12:56;4.47;;;2.65;;
24715;SDS011;12822;50.124;8.678;2023-05-07T05:15:22;4.43;;;3.10;;
24715;SDS011;12822;50.124;8.678;2023-05-07T05:17:48;5.95;;;2.75;;
24715;SDS011;12822;50.124;8.678;2023-05-07T05:20:14;6.20;;;2.80;;
24715;SDS011;12822;50.124;8.678;2023-05-07T05:22:41;5.63;;;2.50;;
24715;SDS011;12822;50.124;8.678;2023-05-07T05:25:07;6.28;;;2.83;;
24715;SDS011;12822;50.124;8.678;2023-05-07T05:27:34;4.65;;;2.90;;
24715;SDS011;12822;50.124;8.678;2023-05-07T05:30:00;4.20;;;2.65;;
24715;SDS011;12822;50.124;8.678;2023-05-07T05:32:26;4.43;;;2.83;;
24715;SDS011;12822;50.124;8.678;2023-05-07T05:34:52;4.45;;;2.72;;
24715;SDS011;12822;50.124;8.678;2023-05-07T05:37:18;7.22;;;3.20;;
24715;SDS011;12822;50.124;8.678;2023-05-07T05:39:44;5.03;;;3.28;;
24715;SDS011;12822;50.124;8.678;2023-05-07T05:42:10;4.05;;;3.28;;
24715;SDS011;12822;50.124;8.678;2023-05-07T05:44:36;4.68;;;2.95;;
24715;SDS011;12822;50.124;8.678;2023-05-07T05:47:02;5.60;;;3.25;;
24715;SDS011;12822;50.124;8.678;2023-05-07T05:49:28;6.40;;;3.58;;
24715;SDS011;12822;50.124;8.678;2023-05-07T05:51:54;5.85;;;3.08;;
24715;SDS011;12822;50.124;8.678;2023-05-07T05:54:21;4.55;;;3.33;;
24715;SDS011;12822;50.124;8.678;2023-05-07T05:56:47;4.22;;;3.30;;
24715;SDS011;12822;50.124;8.678;2023-05-07T05:59:13;5.13;;;3.30;;
24715;SDS011;12822;50.124;8.678;2023-05-07T06:01:39;2.88;;;2.58;;
24715;SDS011;12822;50.124;8.678;2023-05-07T06:04:05;7.28;;;3.13;;
24715;SDS011;12822;50.124;8.678;2023-05-07T06:06:31;4.00;;;2.95;;
24715;SDS011;12822;50.124;8.678;2023-05-07T06:08:57;4.45;;;2.90;;
24715;SDS011;12822;50.124;8.678;2023-05-07T06:11:23;4.10;;;2.92;;
24715;SDS011;12822;50.124;8.678;2023-05-07T06:13:50;7.05;;;2.90;;
24715;SDS011;12822;50.124;8.678;2023-05-07T06:16:16;4.95;;;3.40;;
24715;SDS011;12822;50.124;8.678;2023-05-07T06:18:42;6.72;;;3.15;;
24715;SDS011;12822;50.124;8.678;2023-05-07T06:21:09;6.70;;;3.60;;
24715;SDS011;12822;50.124;8.678;2023-05-07T06:23:35;5.82;;;3.30;;
24715;SDS011;12822;50.124;8.678;2023-05-07T06:26:01;4.68;;;3.20;;
24715;SDS011;12822;50.124;8.678;2023-05-07T06:28:27;4.65;;;3.15;;
24715;SDS011;12822;50.124;8.678;2023-05-07T06:31:10;6.47;;;3.00;;
24715;SDS011;12822;50.124;8.678;2023-05-07T06:33:36;5.07;;;3.08;;
24715;SDS011;12822;50.124;8.678;2023-05-07T06:36:02;6.45;;;2.90;;
24715;SDS011;12822;50.124;8.678;2023-05-07T06:38:28;3.45;;;2.72;;
24715;SDS011;12822;50.124;8.678;2023-05-07T06:40:54;5.45;;;2.70;;
24715;SDS011;12822;50.124;8.678;2023-05-07T06:43:22;3.20;;;2.90;;
24715;SDS011;12822;50.124;8.678;2023-05-07T06:45:48;4.22;;;2.70;;
24715;SDS011;12822;50.124;8.678;2023-05-07T06:48:14;4.07;;;2.90;;
24715;SDS011;12822;50.124;8.678;2023-05-07T06:50:41;6.38;;;2.47;;
24715;SDS011;12822;50.124;8.678;2023-05-07T06:53:07;5.50;;;2.90;;
24715;SDS011;12822;50.124;8.678;2023-05-07T06:55:33;6.80;;;2.67;;
24715;SDS011;12822;50.124;8.678;2023-05-07T06:57:59;5.10;;;2.67;;
24715;SDS011;12822;50.124;8.678;2023-05-07T07:00:26;4.07;;;2.80;;
24715;SDS011;12822;50.124;8.678;2023-05-07T07:02:55;4.85;;;2.40;;
24715;SDS011;12822;50.124;8.678;2023-05-07T07:05:21;3.78;;;2.50;;
24715;SDS011;12822;50.124;8.678;2023-05-07T07:07:47;6.03;;;2.63;;
24715;SDS011;12822;50.124;8.678;2023-05-07T07:10:22;4.90;;;2.80;;
24715;SDS011;12822;50.124;8.678;2023-05-07T07:12:48;3.65;;;2.40;;
24715;SDS011;12822;50.124;8.678;2023-05-07T07:15:15;4.70;;;2.70;;
24715;SDS011;12822;50.124;8.678;2023-05-07T07:17:41;4.10;;;2.45;;
24715;SDS011;12822;50.124;8.678;2023-05-07T07:20:07;3.42;;;2.75;;
24715;SDS011;12822;50.124;8.678;2023-05-07T07:22:33;4.05;;;2.35;;
24715;SDS011;12822;50.124;8.678;2023-05-07T07:24:59;5.47;;;2.58;;
24715;SDS011;12822;50.124;8.678;2023-05-07T07:27:25;4.63;;;2.60;;
24715;SDS011;12822;50.124;8.678;2023-05-07T07:29:51;3.08;;;2.78;;
24715;SDS011;12822;50.124;8.678;2023-05-07T07:32:17;4.13;;;2.72;;
24715;SDS011;12822;50.124;8.678;2023-05-07T07:34:43;7.63;;;3.03;;
24715;SDS011;12822;50.124;8.678;2023-05-07T07:37:09;4.25;;;2.65;;
24715;SDS011;12822;50.124;8.678;2023-05-07T07:39:35;4.78;;;2.70;;
24715;SDS011;12822;50.124;8.678;2023-05-07T07:42:04;4.65;;;2.70;;
24715;SDS011;12822;50.124;8.678;2023-05-07T07:44:30;4.57;;;2.40;;
24715;SDS011;12822;50.124;8.678;2023-05-07T07:46:56;3.67;;;2.80;;
24715;SDS011;12822;50.124;8.678;2023-05-07T07:49:22;2.40;;;2.20;;
24715;SDS011;12822;50.124;8.678;2023-05-07T07:51:48;3.65;;;2.95;;
24715;SDS011;12822;50.124;8.678;2023-05-07T07:54:14;3.67;;;2.42;;
24715;SDS011;12822;50.124;8.678;2023-05-07T07:56:40;2.50;;;2.30;;
24715;SDS011;12822;50.124;8.678;2023-05-07T07:59:06;3.50;;;2.25;;
24715;SDS011;12822;50.124;8.678;2023-05-07T08:01:32;5.70;;;3.10;;
24715;SDS011;12822;50.124;8.678;2023-05-07T08:03:58;4.50;;;2.65;;
24715;SDS011;12822;50.124;8.678;2023-05-07T08:06:24;6.20;;;2.75;;
24715;SDS011;12822;50.124;8.678;2023-05-07T08:08:51;3.97;;;2.75;;
24715;SDS011;12822;50.124;8.678;2023-05-07T08:11:17;4.60;;;3.00;;
24715;SDS011;12822;50.124;8.678;2023-05-07T08:13:43;5.72;;;3.03;;
24715;SDS011;12822;50.124;8.678;2023-05-07T08:16:10;4.03;;;2.95;;
24715;SDS011;12822;50.124;8.678;2023-05-07T08:18:36;4.22;;;2.75;;
24715;SDS011;12822;50.124;8.678;2023-05-07T08:21:03;6.72;;;2.80;;
24715;SDS011;12822;50.124;8.678;2023-05-07T08:23:30;6.38;;;3.15;;
24715;SDS011;12822;50.124;8.678;2023-05-07T08:25:56;4.50;;;3.17;;
24715;SDS011;12822;50.124;8.678;2023-05-07T08:28:22;3.95;;;3.13;;
24715;SDS011;12822;50.124;8.678;2023-05-07T08:30:50;5.00;;;2.67;;
24715;SDS011;12822;50.124;8.678;2023-05-07T08:33:16;8.43;;;3.00;;
24715;SDS011;12822;50.124;8.678;2023-05-07T08:35:45;3.85;;;2.78;;
24715;SDS011;12822;50.124;8.678;2023-05-07T08:38:11;4.45;;;3.28;;
24715;SDS011;12822;50.124;8.678;2023-05-07T08:40:38;4.15;;;3.00;;
24715;SDS011;12822;50.124;8.678;2023-05-07T08:43:07;5.05;;;3.13;;
24715;SDS011;12822;50.124;8.678;2023-05-07T08:45:34;3.50;;;3.20;;
24715;SDS011;12822;50.124;8.678;2023-05-07T08:48:05;5.53;;;3.30;;
24715;SDS011;12822;50.124;8.678;2023-05-07T08:50:37;5.70;;;3.10;;
24715;SDS011;12822;50.124;8.678;2023-05-07T08:53:03;3.15;;;2.72;;
24715;SDS011;12822;50.124;8.678;2023-05-07T08:55:30;4.82;;;3.03;;
24715;SDS011;12822;50.124;8.678;2023-05-07T08:57:56;5.25;;;3.10;;
24715;SDS011;12822;50.124;8.678;2023-05-07T09:00:22;4.55;;;2.80;;
24715;SDS011;12822;50.124;8.678;2023-05-07T09:02:48;4.50;;;3.15;;
24715;SDS011;12822;50.124;8.678;2023-05-07T09:05:14;5.65;;;3.38;;
24715;SDS011;12822;50.124;8.678;2023-05-07T09:07:40;4.75;;;3.03;;
24715;SDS011;12822;50.124;8.678;2023-05-07T09:10:06;5.40;;;3.08;;
24715;SDS011;12822;50.124;8.678;2023-05-07T09:12:32;6.90;;;2.78;;
24715;SDS011;12822;50.124;8.678;2023-05-07T09:15:00;5.32;;;3.00;;
24715;SDS011;12822;50.124;8.678;2023-05-07T09:17:27;6.95;;;3.00;;
24715;SDS011;12822;50.124;8.678;2023-05-07T09:19:54;4.32;;;2.90;;
24715;SDS011;12822;50.124;8.678;2023-05-07T09:22:20;5.10;;;2.78;;
24715;SDS011;12822;50.124;8.678;2023-05-07T09:24:49;6.07;;;3.38;;
24715;SDS011;12822;50.124;8.678;2023-05-07T09:27:17;3.70;;;3.30;;
24715;SDS011;12822;50.124;8.678;2023-05-07T09:29:43;3.47;;;2.83;;
24715;SDS011;12822;50.124;8.678;2023-05-07T09:32:09;5.43;;;3.28;;
24715;SDS011;12822;50.124;8.678;2023-05-07T09:34:36;4.07;;;3.45;;
24715;SDS011;12822;50.124;8.678;2023-05-07T09:37:02;6.05;;;3.30;;
24715;SDS011;12822;50.124;8.678;2023-05-07T09:39:41;3.45;;;3.05;;
24715;SDS011;12822;50.124;8.678;2023-05-07T09:42:07;7.28;;;3.00;;
24715;SDS011;12822;50.124;8.678;2023-05-07T09:44:36;3.38;;;2.58;;
24715;SDS011;12822;50.124;8.678;2023-05-07T09:47:04;3.38;;;2.40;;
24715;SDS011;12822;50.124;8.678;2023-05-07T09:49:30;5.72;;;2.63;;
24715;SDS011;12822;50.124;8.678;2023-05-07T09:51:59;5.65;;;2.60;;
24715;SDS011;12822;50.124;8.678;2023-05-07T09:54:26;6.18;;;2.83;;
24715;SDS011;12822;50.124;8.678;2023-05-07T09:56:55;6.53;;;2.70;;
24715;SDS011;12822;50.124;8.678;2023-05-07T09:59:22;5.82;;;2.72;;
24715;SDS011;12822;50.124;8.678;2023-05-07T10:01:48;3.05;;;2.25;;
24715;SDS011;12822;50.124;8.678;2023-05-07T10:04:14;5.07;;;2.20;;
24715;SDS011;12822;50.124;8.678;2023-05-07T10:06:40;3.65;;;2.65;;
24715;SDS011;12822;50.124;8.678;2023-05-07T10:09:08;3.42;;;2.30;;
24715;SDS011;12822;50.124;8.678;2023-05-07T10:11:36;3.55;;;2.60;;
24715;SDS011;12822;50.124;8.678;2023-05-07T10:14:02;4.93;;;2.50;;
24715;SDS011;12822;50.124;8.678;2023-05-07T10:16:31;2.92;;;2.22;;
24715;SDS011;12822;50.124;8.678;2023-05-07T10:18:58;5.32;;;2.38;;
24715;SDS011;12822;50.124;8.678;2023-05-07T10:21:24;3.15;;;2.00;;
24715;SDS011;12822;50.124;8.678;2023-05-07T10:24:26;2.75;;;2.03;;
24715;SDS011;12822;50.124;8.678;2023-05-07T10:26:45;3.30;;;2.05;;
24715;SDS011;12822;50.124;8.678;2023-05-07T10:29:18;4.78;;;2.10;;
24715;SDS011;12822;50.124;8.678;2023-05-07T10:31:48;2.85;;;2.40;;
24715;SDS011;12822;50.124;8.678;2023-05-07T10:34:18;5.32;;;2.28;;
24715;SDS011;12822;50.124;8.678;2023-05-07T10:36:46;3.70;;;2.00;;
24715;SDS011;12822;50.124;8.678;2023-05-07T10:39:12;3.40;;;2.20;;
24715;SDS011;12822;50.124;8.678;2023-05-07T10:41:39;3.97;;;2.50;;
24715;SDS011;12822;50.124;8.678;2023-05-07T10:44:05;3.67;;;2.30;;
24715;SDS011;12822;50.124;8.678;2023-05-07T10:46:31;4.55;;;2.50;;
24715;SDS011;12822;50.124;8.678;2023-05-07T10:56:36;4.28;;;2.33;;
24715;SDS011;12822;50.124;8.678;2023-05-07T10:59:36;4.43;;;2.30;;
24715;SDS011;12822;50.124;8.678;2023-05-07T11:01:57;3.97;;;2.30;;
24715;SDS011;12822;50.124;8.678;2023-05-07T11:04:31;3.58;;;2.03;;
24715;SDS011;12822;50.124;8.678;2023-05-07T11:15:06;3.25;;;2.00;;
24715;SDS011;12822;50.124;8.678;2023-05-07T11:17:33;4.85;;;2.25;;
24715;SDS011;12822;50.124;8.678;2023-05-07T11:20:02;2.92;;;2.05;;
24715;SDS011;12822;50.124;8.678;2023-05-07T11:25:00;3.53;;;2.20;;
24715;SDS011;12822;50.124;8.678;2023-05-07T11:27:27;5.43;;;1.75;;
24715;SDS011;12822;50.124;8.678;2023-05-07T11:29:53;2.75;;;2.10;;
24715;SDS011;12822;50.124;8.678;2023-05-07T11:32:22;2.45;;;1.85;;
24715;SDS011;12822;50.124;8.678;2023-05-07T11:34:52;2.83;;;1.98;;
24715;SDS011;12822;50.124;8.678;2023-05-07T11:37:18;2.40;;;2.20;;
24715;SDS011;12822;50.124;8.678;2023-05-07T11:39:45;3.25;;;1.70;;
24715;SDS011;12822;50.124;8.678;2023-05-07T11:42:30;3.28;;;1.60;;
24715;SDS011;12822;50.124;8.678;2023-05-07T11:44:56;2.08;;;1.60;;
24715;SDS011;12822;50.124;8.678;2023-05-07T11:47:22;3.00;;;1.50;;
24715;SDS011;12822;50.124;8.678;2023-05-07T11:49:49;3.45;;;1.60;;
24715;SDS011;12822;50.124;8.678;2023-05-07T11:52:19;1.92;;;1.55;;
24715;SDS011;12822;50.124;8.678;2023-05-07T11:54:51;3.30;;;1.70;;
24715;SDS011;12822;50.124;8.678;2023-05-07T11:57:18;5.13;;;1.52;;
24715;SDS011;12822;50.124;8.678;2023-05-07T11:59:45;4.22;;;1.70;;
24715;SDS011;12822;50.124;8.678;2023-05-07T12:02:14;2.88;;;1.55;;
24715;SDS011;12822;50.124;8.678;2023-05-07T12:04:40;2.78;;;1.63;;
24715;SDS011;12822;50.124;8.678;2023-05-07T12:07:15;2.10;;;1.38;;
24715;SDS011;12822;50.124;8.678;2023-05-07T12:09:42;2.35;;;1.40;;
24715;SDS011;12822;50.124;8.678;2023-05-07T12:12:08;2.85;;;1.40;;
24715;SDS011;12822;50.124;8.678;2023-05-07T12:14:38;1.83;;;1.27;;
24715;SDS011;12822;50.124;8.678;2023-05-07T12:17:05;2.17;;;1.33;;
24715;SDS011;12822;50.124;8.678;2023-05-07T12:19:31;2.85;;;1.60;;
24715;SDS011;12822;50.124;8.678;2023-05-07T12:21:57;1.70;;;1.40;;
24715;SDS011;12822;50.124;8.678;2023-05-07T12:24:23;2.13;;;1.20;;
24715;SDS011;12822;50.124;8.678;2023-05-07T12:26:49;2.35;;;1.20;;
24715;SDS011;12822;50.124;8.678;2023-05-07T12:29:15;1.55;;;0.88;;
24715;SDS011;12822;50.124;8.678;2023-05-07T12:31:42;2.05;;;1.20;;
24715;SDS011;12822;50.124;8.678;2023-05-07T12:34:08;3.50;;;1.40;;
24715;SDS011;12822;50.124;8.678;2023-05-07T12:36:37;3.20;;;1.40;;
24715;SDS011;12822;50.124;8.678;2023-05-07T12:39:04;1.90;;;1.30;;
24715;SDS011;12822;50.124;8.678;2023-05-07T12:41:30;2.03;;;1.50;;
24715;SDS011;12822;50.124;8.678;2023-05-07T12:44:01;2.05;;;1.33;;
24715;SDS011;12822;50.124;8.678;2023-05-07T12:46:30;1.95;;;1.50;;
24715;SDS011;12822;50.124;8.678;2023-05-07T12:48:56;2.28;;;1.55;;
24715;SDS011;12822;50.124;8.678;2023-05-07T12:51:22;2.25;;;1.70;;
24715;SDS011;12822;50.124;8.678;2023-05-07T12:53:48;3.60;;;1.50;;
24715;SDS011;12822;50.124;8.678;2023-05-07T12:56:15;2.22;;;1.63;;
24715;SDS011;12822;50.124;8.678;2023-05-07T12:58:41;2.67;;;1.55;;
24715;SDS011;12822;50.124;8.678;2023-05-07T13:01:07;1.80;;;1.60;;
24715;SDS011;12822;50.124;8.678;2023-05-07T13:03:35;2.67;;;1.70;;
24715;SDS011;12822;50.124;8.678;2023-05-07T13:06:08;4.72;;;1.63;;
24715;SDS011;12822;50.124;8.678;2023-05-07T13:08:36;3.75;;;1.50;;
24715;SDS011;12822;50.124;8.678;2023-05-07T13:11:06;5.03;;;1.33;;
24715;SDS011;12822;50.124;8.678;2023-05-07T13:13:33;2.72;;;1.67;;
24715;SDS011;12822;50.124;8.678;2023-05-07T13:15:59;2.25;;;1.50;;
24715;SDS011;12822;50.124;8.678;2023-05-07T13:18:25;3.53;;;1.63;;
24715;SDS011;12822;50.124;8.678;2023-05-07T13:20:52;1.55;;;1.45;;
24715;SDS011;12822;50.124;8.678;2023-05-07T13:23:18;3.08;;;1.92;;
24715;SDS011;12822;50.124;8.678;2023-05-07T13:25:44;2.55;;;2.03;;
24715;SDS011;12822;50.124;8.678;2023-05-07T13:28:10;2.40;;;2.00;;
24715;SDS011;12822;50.124;8.678;2023-05-07T13:30:37;5.72;;;2.00;;
24715;SDS011;12822;50.124;8.678;2023-05-07T13:33:03;4.22;;;2.28;;
24715;SDS011;12822;50.124;8.678;2023-05-07T13:35:29;2.55;;;1.95;;
24715;SDS011;12822;50.124;8.678;2023-05-07T13:37:56;3.22;;;2.03;;
24715;SDS011;12822;50.124;8.678;2023-05-07T13:40:22;3.35;;;1.90;;
24715;SDS011;12822;50.124;8.678;2023-05-07T13:42:48;2.67;;;1.85;;
24715;SDS011;12822;50.124;8.678;2023-05-07T13:45:15;5.40;;;2.42;;
24715;SDS011;12822;50.124;8.678;2023-05-07T13:47:41;6.03;;;1.80;;
24715;SDS011;12822;50.124;8.678;2023-05-07T13:50:08;4.43;;;1.80;;
24715;SDS011;12822;50.124;8.678;2023-05-07T13:52:34;2.17;;;1.70;;
24715;SDS011;12822;50.124;8.678;2023-05-07T13:55:00;2.25;;;1.92;;
24715;SDS011;12822;50.124;8.678;2023-05-07T13:57:26;2.55;;;1.80;;
24715;SDS011;12822;50.124;8.678;2023-05-07T13:59:53;4.03;;;1.70;;
24715;SDS011;12822;50.124;8.678;2023-05-07T14:02:19;2.60;;;1.73;;
24715;SDS011;12822;50.124;8.678;2023-05-07T14:04:45;3.53;;;1.60;;
24715;SDS011;12822;50.124;8.678;2023-05-07T14:07:11;2.85;;;1.70;;
24715;SDS011;12822;50.124;8.678;2023-05-07T14:09:37;2.78;;;1.77;;
24715;SDS011;12822;50.124;8.678;2023-05-07T14:12:03;2.78;;;1.83;;
24715;SDS011;12822;50.124;8.678;2023-05-07T14:14:29;2.83;;;1.85;;
24715;SDS011;12822;50.124;8.678;2023-05-07T14:16:57;3.75;;;2.03;;
24715;SDS011;12822;50.124;8.678;2023-05-07T14:19:23;3.78;;;1.92;;
24715;SDS011;12822;50.124;8.678;2023-05-07T14:21:50;4.40;;;1.92;;
24715;SDS011;12822;50.124;8.678;2023-05-07T14:24:16;3.70;;;2.00;;
24715;SDS011;12822;50.124;8.678;2023-05-07T14:26:42;4.78;;;2.00;;
24715;SDS011;12822;50.124;8.678;2023-05-07T14:29:08;3.78;;;2.03;;
24715;SDS011;12822;50.124;8.678;2023-05-07T14:31:34;3.95;;;2.42;;
24715;SDS011;12822;50.124;8.678;2023-05-07T14:34:00;4.75;;;2.33;;
24715;SDS011;12822;50.124;8.678;2023-05-07T14:36:27;12.60;;;2.90;;
24715;SDS011;12822;50.124;8.678;2023-05-07T14:38:55;3.67;;;2.38;;
24715;SDS011;12822;50.124;8.678;2023-05-07T14:41:24;2.20;;;2.00;;
24715;SDS011;12822;50.124;8.678;2023-05-07T14:43:50;3.35;;;2.22;;
24715;SDS011;12822;50.124;8.678;2023-05-07T14:46:17;3.13;;;2.35;;
24715;SDS011;12822;50.124;8.678;2023-05-07T14:48:45;5.47;;;2.13;;
24715;SDS011;12822;50.124;8.678;2023-05-07T14:51:12;4.45;;;2.30;;
24715;SDS011;12822;50.124;8.678;2023-05-07T14:53:38;3.83;;;2.28;;
24715;SDS011;12822;50.124;8.678;2023-05-07T14:56:04;6.18;;;2.30;;
24715;SDS011;12822;50.124;8.678;2023-05-07T14:58:30;4.68;;;2.20;;
24715;SDS011;12822;50.124;8.678;2023-05-07T15:00:56;2.42;;;1.83;;
24715;SDS011;12822;50.124;8.678;2023-05-07T15:03:22;2.78;;;2.03;;